Weather at Sheldon Airport

Public forecast

Using degrees Fahrenheit for public forecast. Weather courtesy of forecast.io.

Closest aviation weather report (METAR) to Sheldon Airport

Closest report is Buffalo Niagara International Airport, 15.9 nm (29.4 km) NW.

2024/05/30 18:54 (retrieved 29 minutes ago)

KBUF 301854Z 34010G18KT 10SM FEW065 18/02 A3013 RMK AO2 SLP205 T01780017

Closest aviation forecast (TAF) to Sheldon Airport

Closest forecast is Buffalo Niagara International Airport, 15.9 nm (29.4 km) NW.

2024/05/30 18:30 (retrieved 53 minutes ago)

TAF KBUF 301729Z 3018/3118 35012KT P6SM FEW050 FM302200 33007KT P6SM SKC FM310100 30004KT P6SM SKC FM311500 27006KT P6SM SKC